Time;durP1;ratioP1;P1;durP2;ratioP2;P2;SDS_P1;SDS_P2;PMS_P1;PMS_P2;Temp;Humidity;BMP_temperature;BMP_pressure;BME280_temperature;BME280_humidity;BME280_pressure;Samples;Min_cycle;Max_cycle;Signal;HPM_P1;HPM_P2
2024/03/26 00:02:22;;;;;;;6.03;2.97;;;;;;;10.28;56.41;97359.53;5007571;28;20029;-63
2024/03/26 00:04:48;;;;;;;6.90;3.00;;;;;;;10.16;57.33;97334.94;4999739;28;20095;-63
2024/03/26 00:07:16;;;;;;;5.32;2.78;;;;;;;10.42;56.99;97378.75;5009296;28;20021;-64
2024/03/26 00:09:42;;;;;;;6.18;2.92;;;;;;;10.48;57.24;97380.69;4984675;28;20029;-64
2024/03/26 00:12:07;;;;;;;6.45;3.03;;;;;;;10.48;57.88;97375.50;4995019;28;20038;-63
2024/03/26 00:14:33;;;;;;;6.50;2.90;;;;;;;10.45;57.41;97383.63;4995203;28;20033;-61
2024/03/26 00:17:01;;;;;;;7.55;3.28;;;;;;;10.44;57.89;97373.41;5023384;28;20584;-63
2024/03/26 00:19:28;;;;;;;7.13;3.20;;;;;;;10.44;58.27;97379.44;4996611;28;20573;-63
2024/03/26 00:21:53;;;;;;;5.50;3.17;;;;;;;10.16;56.68;97330.53;4991219;28;20053;-63
2024/03/26 00:24:19;;;;;;;6.72;2.70;;;;;;;10.36;55.07;97361.28;5024766;28;20140;-62
2024/03/26 00:26:44;;;;;;;5.90;2.92;;;;;;;10.11;56.19;97319.88;5013608;28;20033;-64
2024/03/26 00:29:12;;;;;;;6.32;2.85;;;;;;;10.36;56.59;97350.88;5006739;28;20064;-64
2024/03/26 00:31:37;;;;;;;5.72;2.95;;;;;;;10.29;56.18;97339.53;4976896;28;20758;-64
2024/03/26 00:34:05;;;;;;;5.88;3.03;;;;;;;10.14;55.54;97357.66;5026270;28;20033;-63
2024/03/26 00:36:31;;;;;;;5.32;2.80;;;;;;;10.20;54.91;97351.78;4992853;28;20109;-64
2024/03/26 00:38:57;;;;;;;5.88;2.90;;;;;;;9.86;56.20;97316.63;5001570;28;20446;-63
2024/03/26 00:41:22;;;;;;;5.70;2.92;;;;;;;9.75;57.09;97293.66;4996747;28;20481;-64
2024/03/26 00:43:47;;;;;;;6.05;2.78;;;;;;;10.03;56.15;97329.50;5014057;28;20052;-62
2024/03/26 00:46:13;;;;;;;5.82;2.78;;;;;;;10.05;55.29;97338.72;5000354;28;20451;-63
2024/03/26 00:48:39;;;;;;;6.60;2.70;;;;;;;9.95;55.34;97314.78;4991832;28;20037;-63
2024/03/26 00:51:04;;;;;;;5.50;3.03;;;;;;;9.87;55.11;97330.41;5017394;28;20028;-63
2024/03/26 00:53:30;;;;;;;4.97;2.53;;;;;;;9.97;55.89;97331.81;4999686;28;20025;-63
2024/03/26 00:55:55;;;;;;;5.75;2.75;;;;;;;9.94;55.40;97324.34;4992989;28;20041;-62
2024/03/26 00:58:23;;;;;;;6.32;3.00;;;;;;;9.98;55.54;97320.44;4994820;28;20030;-63
2024/03/26 01:00:49;;;;;;;5.28;2.60;;;;;;;9.98;56.80;97311.84;4994647;28;20520;-63
2024/03/26 01:03:14;;;;;;;7.25;2.97;;;;;;;10.05;57.07;97315.34;5014558;28;20029;-63
2024/03/26 01:05:40;;;;;;;6.47;2.70;;;;;;;9.83;56.56;97265.03;4989431;28;20073;-63
2024/03/26 01:08:06;;;;;;;5.65;2.58;;;;;;;10.06;57.66;97304.00;5011217;28;20062;-63
2024/03/26 01:10:36;;;;;;;5.40;2.83;;;;;;;9.97;57.29;97297.25;4992546;28;20034;-64
2024/03/26 01:13:04;;;;;;;6.00;2.72;;;;;;;9.97;56.88;97298.03;4992243;28;20147;-63
2024/03/26 01:15:29;;;;;;;5.88;2.85;;;;;;;9.75;55.58;97254.72;4993791;28;20038;-62
2024/03/26 01:17:55;;;;;;;5.72;2.70;;;;;;;9.88;56.09;97285.31;4977676;28;20751;-62
2024/03/26 01:20:21;;;;;;;6.32;3.22;;;;;;;9.99;55.95;97288.28;5010146;28;20041;-63
2024/03/26 01:22:46;;;;;;;5.50;2.92;;;;;;;10.05;55.52;97281.59;5011501;28;20436;-63
2024/03/26 01:25:11;;;;;;;6.60;3.10;;;;;;;9.94;58.06;97280.22;4991747;28;20040;-64
2024/03/26 01:27:37;;;;;;;6.07;2.92;;;;;;;9.59;58.02;97273.78;4995636;28;20022;-63
2024/03/26 01:30:02;;;;;;;4.70;2.50;;;;;;;9.60;58.07;97268.44;4993909;28;20076;-63
2024/03/26 01:32:28;;;;;;;6.35;2.72;;;;;;;9.61;59.15;97269.22;4989495;28;20018;-63
2024/03/26 01:34:56;;;;;;;6.28;2.60;;;;;;;9.74;59.37;97260.88;4994135;28;20034;-63
2024/03/26 01:37:22;;;;;;;5.50;2.65;;;;;;;9.78;59.96;97265.56;4997737;28;20137;-63
2024/03/26 01:39:49;;;;;;;5.50;2.50;;;;;;;9.78;58.61;97262.97;4995787;28;20042;-63
2024/03/26 01:42:14;;;;;;;5.05;2.42;;;;;;;9.75;59.11;97255.53;4994935;28;20033;-63
2024/03/26 01:44:40;;;;;;;6.95;2.70;;;;;;;9.81;58.71;97252.22;4994747;28;20034;-62
2024/03/26 01:47:05;;;;;;;4.93;2.45;;;;;;;9.77;58.89;97250.16;5001541;28;20477;-63
2024/03/26 01:49:32;;;;;;;5.40;2.60;;;;;;;9.70;58.56;97249.25;5012788;28;20114;-64
2024/03/26 01:51:58;;;;;;;6.25;2.55;;;;;;;9.68;57.70;97246.00;5010341;28;20149;-63
2024/03/26 01:54:24;;;;;;;5.22;2.47;;;;;;;9.42;58.96;97214.22;4997806;28;20056;-64
2024/03/26 01:56:52;;;;;;;5.55;2.60;;;;;;;9.52;59.17;97239.13;5027362;28;20115;-62
2024/03/26 01:59:17;;;;;;;6.35;2.35;;;;;;;9.45;57.81;97233.81;4999133;28;20119;-62
2024/03/26 02:01:45;;;;;;;6.80;2.60;;;;;;;9.46;58.55;97232.03;4992009;28;20136;-63
2024/03/26 02:04:10;;;;;;;6.35;2.65;;;;;;;9.47;58.97;97229.25;4982413;28;20128;-63
2024/03/26 02:06:36;;;;;;;5.60;2.60;;;;;;;9.47;59.12;97213.69;5031664;28;21448;-62
2024/03/26 02:09:02;;;;;;;5.75;2.45;;;;;;;9.57;58.25;97223.84;5013222;28;20140;-62
2024/03/26 02:11:30;;;;;;;6.20;2.50;;;;;;;9.57;58.86;97218.66;4996625;28;20087;-63
2024/03/26 02:13:57;;;;;;;6.22;2.60;;;;;;;9.52;59.25;97218.38;4981249;28;20033;-64
2024/03/26 02:16:23;;;;;;;6.05;2.38;;;;;;;9.55;59.11;97218.03;4993506;28;20049;-63
2024/03/26 02:18:50;;;;;;;5.20;2.25;;;;;;;9.46;58.01;97208.69;5001255;28;20782;-64
2024/03/26 02:21:18;;;;;;;5.93;2.47;;;;;;;9.42;58.96;97210.81;5031193;28;20026;-64
2024/03/26 02:23:44;;;;;;;5.05;2.42;;;;;;;9.40;58.57;97204.97;4994555;28;20040;-64
2024/03/26 02:26:18;;;;;;;5.53;2.50;;;;;;;9.39;59.99;97195.59;5012574;28;20030;-64
2024/03/26 02:28:44;;;;;;;6.35;2.40;;;;;;;9.39;60.27;97198.19;4997466;28;20061;-63
2024/03/26 02:31:10;;;;;;;5.60;2.50;;;;;;;9.39;60.00;97191.19;5011068;28;20073;-63
2024/03/26 02:33:35;;;;;;;5.90;2.50;;;;;;;9.45;60.19;97205.25;4999485;28;20488;-63
2024/03/26 02:36:01;;;;;;;4.70;2.38;;;;;;;9.48;60.99;97206.72;5038192;28;20045;-63
2024/03/26 02:38:26;;;;;;;4.80;2.35;;;;;;;9.51;61.76;97199.41;5010458;28;20546;-62
2024/03/26 02:40:54;;;;;;;7.60;3.05;;;;;;;9.49;61.34;97197.94;4997776;28;20045;-63
2024/03/26 02:43:20;;;;;;;5.85;2.33;;;;;;;9.43;62.78;97196.84;4994697;28;20041;-63
2024/03/26 02:45:45;;;;;;;5.90;2.58;;;;;;;9.46;62.38;97203.50;4995320;28;20535;-63
2024/03/26 02:48:15;;;;;;;6.25;2.40;;;;;;;9.20;62.69;97157.94;5002691;28;20022;-63
2024/03/26 02:50:41;;;;;;;7.68;2.67;;;;;;;9.39;62.96;97187.78;4998214;28;20428;-63
2024/03/26 02:53:08;;;;;;;5.43;2.40;;;;;;;9.37;62.93;97198.34;4999554;28;20049;-63
2024/03/26 02:55:39;;;;;;;5.40;2.70;;;;;;;9.33;62.55;97178.13;5012997;28;20077;-63
2024/03/26 02:58:06;;;;;;;7.50;2.60;;;;;;;9.34;62.28;97184.91;4998876;28;20037;-63
2024/03/26 03:00:32;;;;;;;4.72;2.50;;;;;;;9.35;62.71;97192.53;5009268;28;20562;-64
2024/03/26 03:03:00;;;;;;;5.97;2.58;;;;;;;9.26;63.55;97187.56;5013532;28;20485;-63
2024/03/26 03:05:30;;;;;;;6.63;2.60;;;;;;;9.27;63.72;97187.38;4994825;28;20029;-63
2024/03/26 03:08:00;;;;;;;5.43;2.70;;;;;;;9.26;61.63;97190.16;5013311;28;20026;-63
2024/03/26 03:10:28;;;;;;;5.53;2.70;;;;;;;9.27;61.71;97195.16;4996989;28;20156;-63
2024/03/26 03:12:53;;;;;;;7.13;2.75;;;;;;;9.27;61.68;97186.56;5010987;28;20519;-63
2024/03/26 03:15:21;;;;;;;6.32;2.75;;;;;;;9.04;62.69;97143.28;5011422;28;20041;-63
2024/03/26 03:17:46;;;;;;;7.40;2.60;;;;;;;9.30;63.56;97191.41;5007984;28;20088;-63
2024/03/26 03:20:14;;;;;;;7.20;2.65;;;;;;;9.28;63.48;97193.38;4999811;28;20041;-64
2024/03/26 03:22:45;;;;;;;5.88;2.47;;;;;;;9.31;62.71;97193.03;4999158;28;20649;-64
2024/03/26 03:25:13;;;;;;;5.82;2.70;;;;;;;9.27;62.55;97187.38;4998478;28;20472;-64
2024/03/26 03:27:38;;;;;;;5.80;2.50;;;;;;;9.26;62.71;97188.38;4995342;28;20695;-62
2024/03/26 03:30:04;;;;;;;6.85;2.80;;;;;;;9.01;62.83;97148.78;5009560;28;20044;-63
2024/03/26 03:32:30;;;;;;;6.03;2.40;;;;;;;9.21;62.63;97188.06;4997863;28;20021;-64
2024/03/26 03:34:55;;;;;;;6.43;2.40;;;;;;;9.24;62.90;97185.94;4995207;28;20103;-62
2024/03/26 03:37:21;;;;;;;6.63;2.60;;;;;;;9.27;62.40;97183.97;4993662;28;20035;-62
2024/03/26 03:39:46;;;;;;;4.75;2.30;;;;;;;9.22;63.04;97184.50;4997409;28;20497;-62
2024/03/26 03:42:14;;;;;;;5.85;2.55;;;;;;;9.09;62.17;97174.69;4993367;28;20714;-64
2024/03/26 03:44:42;;;;;;;5.93;2.72;;;;;;;9.00;61.78;97181.69;4998855;28;20061;-62
2024/03/26 03:47:07;;;;;;;5.85;2.97;;;;;;;8.95;61.72;97172.81;4992670;28;20041;-62
2024/03/26 03:49:35;;;;;;;6.45;2.80;;;;;;;9.00;62.87;97183.47;5000839;28;20026;-62
2024/03/26 03:52:00;;;;;;;5.82;2.60;;;;;;;8.95;62.30;97167.63;5001827;28;20026;-63
2024/03/26 03:54:27;;;;;;;7.35;2.78;;;;;;;9.04;62.75;97176.97;4995494;28;20034;-63
2024/03/26 03:56:55;;;;;;;5.38;2.65;;;;;;;8.98;62.50;97165.50;4994689;28;20029;-62
2024/03/26 03:59:21;;;;;;;6.18;2.60;;;;;;;8.96;63.25;97166.63;4995294;28;20596;-63
2024/03/26 04:01:49;;;;;;;5.95;2.47;;;;;;;8.63;61.85;97118.38;5012790;28;20057;-63
2024/03/26 04:04:17;;;;;;;4.38;2.20;;;;;;;8.84;62.42;97155.84;4994202;28;20040;-63
2024/03/26 04:06:44;;;;;;;5.25;2.40;;;;;;;9.06;64.20;97162.06;4999170;28;20088;-63
2024/03/26 04:09:12;;;;;;;7.55;3.10;;;;;;;9.11;63.75;97153.75;4978000;28;20511;-64
2024/03/26 04:11:38;;;;;;;6.22;2.60;;;;;;;8.96;63.73;97125.97;4991666;28;20058;-62
2024/03/26 04:14:05;;;;;;;5.72;3.08;;;;;;;8.91;63.69;97122.25;4995223;28;20023;-63
2024/03/26 04:16:33;;;;;;;5.50;2.72;;;;;;;9.28;64.03;97167.44;4992970;28;20045;-63
2024/03/26 04:18:58;;;;;;;5.45;2.60;;;;;;;9.20;63.85;97163.13;5011398;28;20049;-63
2024/03/26 04:21:26;;;;;;;7.03;2.80;;;;;;;9.26;63.89;97167.63;4994107;28;20026;-63
2024/03/26 04:23:52;;;;;;;5.15;2.55;;;;;;;9.23;62.92;97160.16;4994703;28;20030;-64
2024/03/26 04:26:17;;;;;;;5.40;2.70;;;;;;;9.21;62.06;97164.72;4996993;28;20818;-64
2024/03/26 04:28:43;;;;;;;6.93;3.45;;;;;;;9.20;61.43;97168.31;4994763;28;20395;-63
2024/03/26 04:31:08;;;;;;;6.60;3.15;;;;;;;9.18;61.47;97168.47;5000662;28;20049;-62
2024/03/26 04:33:36;;;;;;;9.05;3.22;;;;;;;9.30;60.51;97165.50;4998433;28;20033;-63
2024/03/26 04:36:01;;;;;;;6.85;2.80;;;;;;;9.29;62.10;97172.47;4998635;28;20040;-64
2024/03/26 04:38:27;;;;;;;6.93;2.92;;;;;;;9.09;62.20;97125.41;5004092;28;20030;-62
2024/03/26 04:40:52;;;;;;;7.32;2.95;;;;;;;9.33;60.28;97167.75;5013199;28;20026;-62
2024/03/26 04:43:17;;;;;;;6.55;2.78;;;;;;;9.36;60.45;97168.22;5005041;28;20112;-62
2024/03/26 04:45:44;;;;;;;6.60;3.03;;;;;;;9.42;60.70;97164.91;4975285;28;20088;-62
2024/03/26 04:48:09;;;;;;;6.00;2.88;;;;;;;9.12;60.51;97122.47;4993767;28;20062;-62
2024/03/26 04:50:34;;;;;;;6.65;3.20;;;;;;;9.38;61.35;97166.25;4977279;28;20176;-64
2024/03/26 04:53:02;;;;;;;6.15;3.20;;;;;;;9.38;61.56;97168.84;5010655;28;20026;-62
2024/03/26 04:55:27;;;;;;;6.30;3.60;;;;;;;9.37;60.54;97177.59;4978020;28;20703;-63
2024/03/26 04:57:55;;;;;;;6.55;3.10;;;;;;;9.30;61.50;97168.06;4997251;28;20084;-62
2024/03/26 05:00:24;;;;;;;6.40;2.90;;;;;;;9.33;62.25;97178.91;4994464;28;21411;-63
2024/03/26 05:02:49;;;;;;;8.20;3.33;;;;;;;9.11;63.07;97133.84;4982932;28;20045;-62
2024/03/26 05:05:14;;;;;;;6.32;2.78;;;;;;;9.36;62.29;97177.75;5006900;28;20026;-63
2024/03/26 05:07:40;;;;;;;7.15;3.00;;;;;;;9.30;62.74;97176.66;5000818;28;20087;-63
2024/03/26 05:10:07;;;;;;;5.45;2.80;;;;;;;9.01;63.67;97138.41;5001290;28;20038;-63
2024/03/26 05:12:33;;;;;;;5.22;2.70;;;;;;;9.26;62.94;97172.81;4992516;28;20590;-63
2024/03/26 05:14:58;;;;;;;8.35;3.05;;;;;;;9.05;62.08;97142.28;4990646;28;20087;-63
2024/03/26 05:17:24;;;;;;;11.35;3.45;;;;;;;9.29;62.28;97182.00;4993251;28;20026;-62
2024/03/26 05:19:49;;;;;;;6.90;3.42;;;;;;;9.23;62.60;97176.53;5021335;28;20056;-63
2024/03/26 05:22:15;;;;;;;7.93;2.85;;;;;;;9.34;62.92;97182.31;4972901;28;20574;-62
2024/03/26 05:24:40;;;;;;;9.80;2.95;;;;;;;9.30;63.03;97179.25;4997790;28;20504;-62
2024/03/26 05:27:11;;;;;;;5.80;2.95;;;;;;;9.22;62.76;97172.34;4996270;28;20038;-63
2024/03/26 05:29:39;;;;;;;6.18;2.90;;;;;;;9.27;63.24;97176.19;4995808;28;20040;-63
2024/03/26 05:32:06;;;;;;;8.88;3.30;;;;;;;9.27;62.65;97178.78;4993659;28;20115;-64
2024/03/26 05:34:32;;;;;;;9.73;3.33;;;;;;;9.33;63.00;97176.31;4979144;28;20138;-63
2024/03/26 05:36:57;;;;;;;6.10;3.35;;;;;;;9.33;63.53;97178.13;5015661;28;20034;-62
2024/03/26 05:39:25;;;;;;;8.95;3.55;;;;;;;9.36;63.86;97182.94;4991734;28;20034;-60
2024/03/26 05:41:53;;;;;;;6.70;3.65;;;;;;;9.39;63.92;97183.41;4998862;28;20658;-63
2024/03/26 05:44:21;;;;;;;7.45;3.45;;;;;;;9.13;62.45;97165.59;5004098;28;20052;-64
2024/03/26 05:46:46;;;;;;;11.00;3.85;;;;;;;9.29;63.49;97188.03;5009468;28;20025;-64
2024/03/26 05:49:12;;;;;;;7.65;4.07;;;;;;;9.02;64.18;97150.41;4996538;28;20555;-62
2024/03/26 05:51:40;;;;;;;8.43;4.38;;;;;;;9.15;63.82;97150.66;4979222;28;20030;-64
2024/03/26 05:54:05;;;;;;;7.25;4.10;;;;;;;9.40;64.06;97190.22;4994633;28;20492;-62
2024/03/26 05:56:30;;;;;;;7.75;3.88;;;;;;;9.38;64.12;97181.81;4995542;28;20026;-63
2024/03/26 05:58:59;;;;;;;12.25;3.75;;;;;;;9.45;63.88;97187.09;5031548;28;20030;-64
2024/03/26 06:01:24;;;;;;;6.38;3.40;;;;;;;9.43;63.49;97182.06;4980256;28;20057;-64
2024/03/26 06:03:50;;;;;;;10.90;3.80;;;;;;;9.50;64.63;97186.59;4998345;28;20096;-63
2024/03/26 06:06:18;;;;;;;6.93;3.38;;;;;;;9.23;64.55;97160.97;4981194;28;20022;-63
2024/03/26 06:08:43;;;;;;;6.70;3.28;;;;;;;9.48;64.51;97196.34;4990617;28;20475;-62
2024/03/26 06:11:08;;;;;;;5.93;3.38;;;;;;;9.48;64.06;97199.75;4998364;28;20501;-63
2024/03/26 06:13:34;;;;;;;6.10;3.17;;;;;;;9.41;64.18;97204.00;4992208;28;20123;-63
2024/03/26 06:16:09;;;;;;;9.23;3.28;;;;;;;9.55;63.71;97198.06;4995256;28;20033;-63
2024/03/26 06:18:35;;;;;;;6.30;3.00;;;;;;;9.48;64.34;97193.75;4992392;28;20104;-64
2024/03/26 06:21:07;;;;;;;6.05;3.10;;;;;;;9.54;65.50;97195.66;4988070;28;20030;-63
2024/03/26 06:23:35;;;;;;;7.85;3.13;;;;;;;9.53;65.37;97191.44;4976386;28;20077;-62
2024/03/26 06:26:02;;;;;;;8.27;3.35;;;;;;;9.53;65.83;97191.44;4989004;28;20034;-64
2024/03/26 06:28:31;;;;;;;10.95;4.88;;;;;;;9.23;63.65;97147.19;5001285;28;20085;-63
2024/03/26 06:30:56;;;;;;;8.25;3.47;;;;;;;9.55;63.80;97194.69;5005294;28;20040;-64
2024/03/26 06:33:24;;;;;;;9.52;3.90;;;;;;;9.53;64.50;97194.03;4996044;28;20045;-63
2024/03/26 06:35:54;;;;;;;10.25;3.80;;;;;;;9.55;64.92;97198.06;4996810;28;20041;-62
2024/03/26 06:38:21;;;;;;;8.38;3.40;;;;;;;9.62;64.75;97204.19;5025945;28;20488;-63
2024/03/26 06:40:47;;;;;;;6.35;3.22;;;;;;;9.61;65.85;97202.56;5015551;28;20051;-63
2024/03/26 06:43:13;;;;;;;7.32;3.17;;;;;;;9.47;66.66;97171.38;5007727;28;20032;-62
2024/03/26 06:45:38;;;;;;;8.80;3.67;;;;;;;9.57;65.63;97192.72;4986477;28;20037;-63
2024/03/26 06:48:09;;;;;;;7.78;3.63;;;;;;;9.60;64.53;97192.34;4994919;28;20738;-62
2024/03/26 06:50:35;;;;;;;6.13;3.00;;;;;;;9.68;66.10;97197.50;5012798;28;20131;-62
2024/03/26 06:53:01;;;;;;;8.23;3.28;;;;;;;9.55;66.78;97166.13;4999539;28;20018;-62
2024/03/26 06:55:26;;;;;;;7.78;2.85;;;;;;;9.67;63.69;97189.88;4998430;28;20167;-64
2024/03/26 06:57:56;;;;;;;6.47;2.95;;;;;;;9.73;65.90;97189.16;5015096;28;20034;-64
2024/03/26 07:00:22;;;;;;;7.40;3.05;;;;;;;9.58;64.24;97194.31;4994692;28;20053;-63
2024/03/26 07:02:47;;;;;;;6.40;3.00;;;;;;;9.62;64.48;97201.59;5013106;28;20033;-63
2024/03/26 07:05:16;;;;;;;5.80;2.70;;;;;;;9.66;63.58;97207.25;4998632;28;20552;-64
2024/03/26 07:07:41;;;;;;;9.05;3.80;;;;;;;9.58;65.44;97207.28;4978973;28;20395;-63
2024/03/26 07:10:09;;;;;;;8.95;4.15;;;;;;;9.59;65.81;97207.13;5012086;28;20134;-63
2024/03/26 07:12:35;;;;;;;8.18;4.30;;;;;;;9.54;64.67;97211.22;4982026;28;20162;-61
2024/03/26 07:15:00;;;;;;;10.27;3.53;;;;;;;9.32;64.25;97173.91;5003634;28;20033;-63
2024/03/26 07:17:26;;;;;;;7.80;3.20;;;;;;;9.63;63.15;97213.56;4993233;28;20037;-62
2024/03/26 07:19:52;;;;;;;7.15;3.42;;;;;;;9.59;63.69;97216.69;4996756;28;20793;-63
2024/03/26 07:22:17;;;;;;;7.68;3.30;;;;;;;9.31;63.68;97177.47;4993052;28;20046;-62
2024/03/26 07:24:43;;;;;;;8.65;3.30;;;;;;;9.54;62.60;97217.19;4995409;28;20037;-62
2024/03/26 07:27:11;;;;;;;7.43;3.47;;;;;;;9.47;62.31;97220.66;4980256;28;20029;-62
2024/03/26 07:29:38;;;;;;;8.00;3.33;;;;;;;9.44;62.89;97219.22;5008333;28;20021;-62
2024/03/26 07:32:06;;;;;;;6.35;3.65;;;;;;;9.25;61.90;97173.78;4995274;28;20048;-64
2024/03/26 07:34:36;;;;;;;8.40;4.20;;;;;;;9.45;60.67;97207.84;4977165;28;20029;-63
2024/03/26 07:37:02;;;;;;;7.05;4.10;;;;;;;9.49;59.75;97214.34;5012480;28;20045;-62
2024/03/26 07:39:29;;;;;;;8.85;4.32;;;;;;;9.52;59.28;97211.38;5008905;28;20112;-62
2024/03/26 07:41:55;;;;;;;8.02;3.80;;;;;;;9.39;57.57;97190.41;4992025;28;20030;-62
2024/03/26 07:44:23;;;;;;;6.88;3.53;;;;;;;9.67;55.20;97206.25;4995991;28;20029;-63
2024/03/26 07:46:49;;;;;;;8.80;3.70;;;;;;;9.69;55.89;97211.28;4977281;28;20022;-64
2024/03/26 07:49:14;;;;;;;6.78;3.97;;;;;;;9.70;57.00;97220.69;4991896;28;20056;-63
2024/03/26 07:51:39;;;;;;;7.80;3.50;;;;;;;9.80;56.36;97226.44;4994620;28;20017;-63
2024/03/26 07:54:07;;;;;;;6.88;3.83;;;;;;;9.78;57.05;97224.03;4998399;28;20026;-62
2024/03/26 07:56:33;;;;;;;10.82;4.35;;;;;;;9.59;58.33;97186.34;4974912;28;20080;-63
2024/03/26 07:59:01;;;;;;;8.40;4.25;;;;;;;9.80;60.88;97227.25;4978593;28;20026;-62
2024/03/26 08:01:27;;;;;;;8.90;4.75;;;;;;;9.56;59.55;97251.56;4994577;28;20054;-62
2024/03/26 08:03:55;;;;;;;8.63;4.35;;;;;;;9.50;64.87;97239.28;4998217;28;20543;-62
2024/03/26 08:06:23;;;;;;;6.80;4.07;;;;;;;9.46;65.37;97239.81;4995039;28;20724;-63
2024/03/26 08:08:50;;;;;;;6.65;4.10;;;;;;;9.35;62.51;97236.63;5022703;28;20153;-62
2024/03/26 08:11:20;;;;;;;6.22;3.92;;;;;;;9.02;62.13;97247.16;5000929;28;20061;-62
2024/03/26 08:13:45;;;;;;;6.30;3.78;;;;;;;9.06;62.77;97249.41;4978480;28;20045;-62
2024/03/26 08:16:11;;;;;;;7.72;4.15;;;;;;;9.19;62.60;97239.28;5012654;28;20469;-63
2024/03/26 08:18:36;;;;;;;7.00;3.90;;;;;;;8.89;63.35;97192.44;4996898;28;20814;-63
2024/03/26 08:21:04;;;;;;;7.03;4.10;;;;;;;9.20;62.96;97227.97;4996478;28;20120;-63
2024/03/26 08:23:33;;;;;;;11.23;4.10;;;;;;;9.20;66.88;97220.97;4973455;28;20038;-63
2024/03/26 08:25:59;;;;;;;7.10;3.75;;;;;;;9.06;63.90;97216.50;5026322;28;20032;-65
2024/03/26 08:28:25;;;;;;;9.38;3.92;;;;;;;9.12;64.11;97218.41;4999333;28;21032;-64
2024/03/26 08:30:50;;;;;;;7.80;3.92;;;;;;;8.88;67.83;97179.66;5009961;28;20033;-65
2024/03/26 08:33:15;;;;;;;6.60;3.90;;;;;;;9.10;66.87;97216.97;5005484;28;20026;-63
2024/03/26 08:35:41;;;;;;;8.52;4.00;;;;;;;9.01;66.44;97206.63;4993785;28;20461;-65
2024/03/26 08:38:07;;;;;;;8.02;3.97;;;;;;;9.09;65.30;97210.16;4994447;28;20030;-66
2024/03/26 08:40:33;;;;;;;7.15;4.03;;;;;;;9.19;63.68;97226.31;4981923;28;20037;-64
2024/03/26 08:42:58;;;;;;;6.35;3.78;;;;;;;9.15;64.80;97223.25;4997378;28;20865;-63
2024/03/26 08:45:24;;;;;;;6.60;4.03;;;;;;;9.14;63.97;97215.66;5013400;28;20037;-63
2024/03/26 08:47:51;;;;;;;8.68;4.07;;;;;;;9.15;62.59;97218.09;4992303;28;20030;-65
2024/03/26 08:50:17;;;;;;;6.78;3.63;;;;;;;9.23;64.02;97219.81;5000807;28;20107;-63
2024/03/26 08:52:44;;;;;;;8.02;3.83;;;;;;;9.38;64.82;97225.09;4992238;28;20045;-62
2024/03/26 08:55:10;;;;;;;6.72;3.90;;;;;;;9.19;62.74;97177.84;5010722;28;20041;-64
2024/03/26 08:57:35;;;;;;;7.30;3.78;;;;;;;9.46;63.91;97211.28;5012372;28;20021;-61
2024/03/26 09:00:03;;;;;;;6.70;3.97;;;;;;;9.41;61.68;97212.59;4992343;28;20037;-64
2024/03/26 09:02:32;;;;;;;7.03;3.50;;;;;;;9.46;61.35;97213.88;5000266;28;20029;-65
2024/03/26 09:04:58;;;;;;;7.25;3.63;;;;;;;9.42;61.15;97210.81;4992158;28;20053;-65
2024/03/26 09:07:23;;;;;;;7.13;3.55;;;;;;;9.46;60.07;97212.09;5006476;28;20065;-63
2024/03/26 09:09:49;;;;;;;11.15;3.83;;;;;;;9.53;63.16;97205.22;5028278;28;20053;-64
2024/03/26 09:12:14;;;;;;;6.57;3.78;;;;;;;9.55;61.47;97208.44;4993114;28;20070;-65
2024/03/26 09:14:40;;;;;;;8.15;4.10;;;;;;;9.55;61.77;97208.44;5026465;28;20040;-65
2024/03/26 09:17:05;;;;;;;5.95;3.58;;;;;;;9.79;64.94;97207.47;4997315;28;20677;-63
2024/03/26 09:19:30;;;;;;;8.23;3.70;;;;;;;9.95;64.22;97196.16;5009440;28;20084;-64
2024/03/26 09:21:56;;;;;;;6.95;3.97;;;;;;;9.73;62.55;97156.25;4990515;28;20030;-65
2024/03/26 09:24:22;;;;;;;9.00;4.07;;;;;;;10.01;61.82;97190.25;5010818;28;20577;-65
2024/03/26 09:26:48;;;;;;;6.20;4.20;;;;;;;9.80;60.78;97177.94;5010729;28;20041;-65
2024/03/26 09:29:15;;;;;;;7.43;4.10;;;;;;;9.90;60.68;97193.28;4991387;28;20030;-64
2024/03/26 09:31:44;;;;;;;7.40;4.35;;;;;;;9.81;60.17;97189.91;4996430;28;20034;-64
2024/03/26 09:34:09;;;;;;;7.15;4.10;;;;;;;9.67;60.08;97184.69;4979372;28;20034;-66
2024/03/26 09:36:37;;;;;;;8.15;4.05;;;;;;;9.69;61.73;97183.56;4986228;28;20030;-65
2024/03/26 09:39:02;;;;;;;7.13;4.50;;;;;;;9.66;61.39;97175.31;5010164;28;20057;-66
2024/03/26 09:41:28;;;;;;;7.28;4.40;;;;;;;9.81;62.27;97179.53;5010362;28;20105;-66
2024/03/26 09:43:57;;;;;;;9.95;4.05;;;;;;;9.87;60.28;97172.03;4993572;28;20037;-66
2024/03/26 09:46:22;;;;;;;7.28;4.18;;;;;;;9.81;62.62;97168.34;4969824;28;20022;-66
2024/03/26 09:48:48;;;;;;;7.78;4.50;;;;;;;9.77;62.52;97183.47;4994141;28;20100;-67
2024/03/26 09:51:16;;;;;;;7.75;3.90;;;;;;;9.65;60.25;97166.69;4991131;28;20076;-66
2024/03/26 09:53:46;;;;;;;8.23;4.63;;;;;;;9.35;63.31;97151.03;4991275;28;20042;-67
2024/03/26 09:56:12;;;;;;;6.72;4.07;;;;;;;9.58;61.63;97171.78;4975854;28;20034;-66
2024/03/26 09:58:37;;;;;;;6.90;4.40;;;;;;;9.66;61.86;97155.34;4985331;28;20026;-66
2024/03/26 10:01:03;;;;;;;7.50;4.25;;;;;;;9.56;63.01;97168.53;5007572;28;20052;-66
2024/03/26 10:03:32;;;;;;;7.95;4.57;;;;;;;9.62;62.62;97161.88;4991887;28;20075;-66
2024/03/26 10:05:58;;;;;;;7.83;4.13;;;;;;;9.67;63.42;97164.72;4999945;28;20147;-68
2024/03/26 10:08:28;;;;;;;6.45;4.15;;;;;;;9.59;62.01;97155.22;5010349;28;20121;-66
2024/03/26 10:10:55;;;;;;;7.63;4.13;;;;;;;9.66;62.52;97159.72;4998054;28;20042;-66
2024/03/26 10:13:22;;;;;;;6.95;4.20;;;;;;;9.54;61.85;97151.53;5015258;28;20048;-67
2024/03/26 10:15:52;;;;;;;7.03;3.78;;;;;;;9.36;62.86;97125.88;4993725;28;20053;-65
2024/03/26 10:18:20;;;;;;;9.27;4.95;;;;;;;9.54;65.60;97143.75;5000291;28;20092;-67
2024/03/26 10:20:45;;;;;;;7.18;3.50;;;;;;;9.50;64.03;97142.50;4996427;28;20036;-67
2024/03/26 10:23:10;;;;;;;7.22;4.10;;;;;;;9.34;62.52;97096.72;5000210;28;20038;-66
2024/03/26 10:25:36;;;;;;;7.10;3.90;;;;;;;9.46;61.45;97134.25;4995653;28;20183;-67
2024/03/26 10:28:02;;;;;;;7.75;4.25;;;;;;;9.49;62.70;97120.94;4998808;28;20137;-65
2024/03/26 10:30:28;;;;;;;6.65;4.35;;;;;;;9.53;63.99;97121.41;5010721;28;20021;-67
2024/03/26 10:32:58;;;;;;;7.07;4.00;;;;;;;9.68;62.56;97124.03;4992414;28;20108;-65
2024/03/26 10:35:25;;;;;;;6.53;3.90;;;;;;;9.55;63.50;97116.84;5000507;28;20026;-66
2024/03/26 10:37:55;;;;;;;7.13;4.70;;;;;;;9.50;63.55;97119.13;4978483;28;20026;-66
2024/03/26 10:40:40;;;;;;;6.78;4.20;;;;;;;9.27;62.08;97082.81;4996793;28;20026;-64
2024/03/26 10:43:07;;;;;;;8.73;4.55;;;;;;;9.46;62.50;97117.88;5012541;28;20096;-62
2024/03/26 10:45:33;;;;;;;7.80;4.60;;;;;;;9.46;63.07;97115.28;4997453;28;20029;-65
2024/03/26 10:48:00;;;;;;;6.78;4.53;;;;;;;9.57;62.63;97109.69;5001346;28;20026;-65
2024/03/26 10:50:26;;;;;;;7.13;4.40;;;;;;;9.53;60.77;97092.84;4995573;28;20037;-67
2024/03/26 10:52:51;;;;;;;6.93;4.28;;;;;;;9.68;60.87;97106.66;5013991;28;20037;-65
2024/03/26 10:55:20;;;;;;;7.10;4.32;;;;;;;9.65;60.81;97099.22;5013475;28;20034;-63
2024/03/26 10:57:45;;;;;;;6.70;4.30;;;;;;;9.58;60.42;97093.09;4981934;28;20091;-66
2024/03/26 11:00:14;;;;;;;9.68;4.75;;;;;;;9.46;61.63;97064.19;4994966;28;20077;-66
2024/03/26 11:02:44;;;;;;;8.07;4.38;;;;;;;9.59;60.32;97097.34;5030147;28;20514;-66
2024/03/26 11:05:10;;;;;;;6.45;4.15;;;;;;;9.55;60.66;97089.09;4999113;28;20038;-64
2024/03/26 11:07:36;;;;;;;6.70;4.10;;;;;;;9.52;60.75;97089.44;4995585;28;20032;-65
2024/03/26 11:10:09;;;;;;;6.95;4.38;;;;;;;9.48;61.74;97084.78;5006351;28;20057;-66
2024/03/26 11:12:39;;;;;;;7.05;4.30;;;;;;;9.60;61.13;97075.56;5012758;28;20311;-64
2024/03/26 11:15:14;;;;;;;7.05;4.57;;;;;;;9.61;61.25;97062.44;5001199;28;20060;-63
2024/03/26 11:18:02;;;;;;;6.70;4.20;;;;;;;9.69;59.37;97063.34;4995842;28;20087;-66
2024/03/26 11:20:32;;;;;;;6.32;3.92;;;;;;;9.76;62.26;97064.25;4981426;28;21061;-64
2024/03/26 11:23:07;;;;;;;7.38;4.30;;;;;;;9.79;61.50;97062.09;4982247;28;20922;-65
2024/03/26 11:25:35;;;;;;;7.38;4.47;;;;;;;9.77;59.94;97056.28;4997389;28;20102;-64
2024/03/26 11:28:02;;;;;;;7.90;4.40;;;;;;;9.92;59.01;97056.28;4980976;28;20104;-65
2024/03/26 11:30:32;;;;;;;6.57;4.25;;;;;;;9.56;60.46;97019.81;4988413;28;20057;-63
2024/03/26 11:33:00;;;;;;;;;;;;;;;9.84;61.85;97047.78;5007438;28;20045;-66
2024/03/26 11:35:32;;;;;;;7.72;4.20;;;;;;;9.74;59.53;97055.84;4996439;28;19921;-65
2024/03/26 11:37:58;;;;;;;6.72;4.25;;;;;;;9.75;60.67;97060.84;5026071;28;20724;-67
2024/03/26 11:40:25;;;;;;;6.45;4.07;;;;;;;9.74;61.47;97067.00;4991986;28;20125;-65